メインページ
METAR-TAF:

METAR-TAF

空港 :

キスム国際空港

キスム, ケニヤ

緯度: 00-06S, 経度: 034-45E, 海抜: 1157m

現時点の気象観測

当レポートは2時間39分前の21:00(UTC)に作成
無風
気温 20°C
湿度 88%
気圧
視程10km以上
高度2000ftの雲はほとんどない, 積乱雲.
高度8000ftの千切れ雲あり

METAR: HKKI 262100Z 00000KT 9999 FEW020CB BKN080 20/18 Q018

時間: 02:39 (23:39 UTC)

予報

当レポートは6時間39分前の17:00(UTC)に作成
予報は26日の 18時(UTC)から 27日の 18時(UTC)まで有効
北西の風 10kt
視程10km以上
高度2200ftの雲はほとんどない, 積乱雲.
高度8000ftの千切れ雲あり
26日の 21時(UTC)から 26日の 23時(UTC)まで徐々に
北東の風 5kt
27日の 09時(UTC)から 27日の 12時(UTC)まで徐々に
西/南西の風 10kt

TAF: HKKI 261700Z 2618/2718 32010KT 9999 FEW022CB BKN080 BECMG 2621/2623 04005KT BECMG 2709/2712 24010KT

4,000以上の空港の気象観測と天気予報(METAR報とTAF報)

利用可能な観測所は地図上に黄色い丸と赤い丸で示す。

丸の上にカーソルを重ねると観測所名を参照できる。

次にクリックすると気象観測と天気予報を参照できる。

マップの切り替え:黒色「×」印の緑ボタンをクリックして拡大、「-」印の緑ボタンをクリックして縮小、緑色の三角印をクリックして隣りの地図に切り替え


METAR-TAF: